Ibiza Aeropuerto en Baleares

latitud = 38° 52' 35''N | longitud = 0014° 23' 04''E
6 metros sobre el nivel del mar |

Fecha, hora, temperatura, viento dirección y velocidad, humedad y presión.

  • 23-09-2018 00:00:00 | 21.60°C | Noroeste |5.00 km/h | 80.00% | 1020.50 hPa
  • 22-09-2018 23:00:00 | 23.10°C | Oeste |3.00 km/h | 76.00% | 1020.40 hPa
  • 22-09-2018 22:00:00 | 23.80°C | Sudoeste |9.00 km/h | 73.00% | 1020.50 hPa
  • 22-09-2018 21:00:00 | 24.50°C | Sudoeste |8.00 km/h | 70.00% | 1019.90 hPa
  • 22-09-2018 20:00:00 | 24.70°C | Sudoeste |11.00 km/h | 69.00% | 1019.60 hPa
  • 22-09-2018 19:00:00 | 25.80°C | Sudoeste |12.00 km/h | 64.00% | 1019.60 hPa
  • 22-09-2018 18:00:00 | 26.30°C | Sudoeste |14.00 km/h | 62.00% | 1019.60 hPa
  • 22-09-2018 17:00:00 | 26.90°C | Sudoeste |14.00 km/h | 61.00% | 1019.80 hPa
  • 22-09-2018 16:00:00 | 27.00°C | Sudoeste |14.00 km/h | 62.00% | 1020.30 hPa
  • 22-09-2018 15:00:00 | 27.10°C | Sudoeste |16.00 km/h | 61.00% | 1020.50 hPa
  • 22-09-2018 14:00:00 | 27.30°C | Sudoeste |15.00 km/h | 61.00% | 1020.90 hPa
  • 22-09-2018 13:00:00 | 26.90°C | Sudoeste |13.00 km/h | 60.00% | 1021.30 hPa
  • 22-09-2018 12:00:00 | 26.30°C | Sudoeste |13.00 km/h | 63.00% | 1021.20 hPa
  • 22-09-2018 11:00:00 | 26.30°C | Sur |10.00 km/h | 66.00% | 1021.00 hPa
  • 22-09-2018 10:00:00 | 24.50°C | Sur |6.00 km/h | 77.00% | 1020.60 hPa
  • 22-09-2018 09:00:00 | 22.20°C | Norte |4.00 km/h | 85.00% | 1020.30 hPa
  • 22-09-2018 08:00:00 | 20.40°C | Noroeste |5.00 km/h | 88.00% | 1019.60 hPa
  • 22-09-2018 07:00:00 | 20.40°C | Noroeste |5.00 km/h | 88.00% | 1019.10 hPa
  • 22-09-2018 06:00:00 | 20.00°C | Noroeste |3.00 km/h | 87.00% | 1018.70 hPa
  • 22-09-2018 05:00:00 | 20.30°C | Noroeste |4.00 km/h | 86.00% | 1018.60 hPa
  • 22-09-2018 04:00:00 | 20.60°C | Nordeste |4.00 km/h | 86.00% | 1018.70 hPa
  • 22-09-2018 03:00:00 | 20.60°C | Nordeste |5.00 km/h | 84.00% | 1018.50 hPa
  • 22-09-2018 02:00:00 | 21.40°C | Sudoeste |5.00 km/h | 83.00% | 1018.20 hPa
  • 22-09-2018 01:00:00 | 22.30°C | Oeste |5.00 km/h | 80.00% | 1018.20 hPa
    • Datos gráficos mensuales de Ibiza Aeropuerto: